sensor_id;sensor_type;location;lat;lon;timestamp;pressure;altitude;pressure_sealevel;temperature
45034;BMP280;30771;47.988;-4.186;2023-12-20T00:02:14;102588.47;;;9.40
45034;BMP280;30771;47.988;-4.186;2023-12-20T00:04:41;102588.28;;;9.41
45034;BMP280;30771;47.988;-4.186;2023-12-20T00:07:08;102586.34;;;9.34
45034;BMP280;30771;47.988;-4.186;2023-12-20T00:09:35;102589.28;;;9.31
45034;BMP280;30771;47.988;-4.186;2023-12-20T00:12:02;102587.06;;;9.26
45034;BMP280;30771;47.988;-4.186;2023-12-20T00:14:29;102592.31;;;9.26
45034;BMP280;30771;47.988;-4.186;2023-12-20T00:16:55;102581.25;;;9.22
45034;BMP280;30771;47.988;-4.186;2023-12-20T00:19:22;102566.28;;;9.13
45034;BMP280;30771;47.988;-4.186;2023-12-20T00:21:49;102550.25;;;9.16
45034;BMP280;30771;47.988;-4.186;2023-12-20T00:24:16;102542.78;;;9.12
45034;BMP280;30771;47.988;-4.186;2023-12-20T00:26:43;102523.25;;;9.05
45034;BMP280;30771;47.988;-4.186;2023-12-20T00:29:10;102506.50;;;9.06
45034;BMP280;30771;47.988;-4.186;2023-12-20T00:31:36;102500.03;;;9.10
45034;BMP280;30771;47.988;-4.186;2023-12-20T00:34:03;102486.75;;;9.02
45034;BMP280;30771;47.988;-4.186;2023-12-20T00:36:30;102485.91;;;9.11
45034;BMP280;30771;47.988;-4.186;2023-12-20T00:38:57;102479.53;;;9.13
45034;BMP280;30771;47.988;-4.186;2023-12-20T00:41:23;102447.47;;;9.00
45034;BMP280;30771;47.988;-4.186;2023-12-20T00:43:50;102450.38;;;9.07
45034;BMP280;30771;47.988;-4.186;2023-12-20T00:46:17;102452.13;;;9.16
45034;BMP280;30771;47.988;-4.186;2023-12-20T00:48:44;102434.56;;;9.16
45034;BMP280;30771;47.988;-4.186;2023-12-20T00:51:12;102410.69;;;9.10
45034;BMP280;30771;47.988;-4.186;2023-12-20T00:53:38;102409.25;;;9.15
45034;BMP280;30771;47.988;-4.186;2023-12-20T00:56:05;102396.81;;;9.17
45034;BMP280;30771;47.988;-4.186;2023-12-20T00:58:32;102385.75;;;9.14
45034;BMP280;30771;47.988;-4.186;2023-12-20T01:00:59;102382.00;;;9.16
45034;BMP280;30771;47.988;-4.186;2023-12-20T01:03:26;102371.50;;;9.16
45034;BMP280;30771;47.988;-4.186;2023-12-20T01:05:53;102360.84;;;9.08
45034;BMP280;30771;47.988;-4.186;2023-12-20T01:08:20;102342.88;;;9.04
45034;BMP280;30771;47.988;-4.186;2023-12-20T01:10:46;102325.06;;;9.07
45034;BMP280;30771;47.988;-4.186;2023-12-20T01:13:13;102308.03;;;9.11
45034;BMP280;30771;47.988;-4.186;2023-12-20T01:15:40;102299.41;;;9.19
45034;BMP280;30771;47.988;-4.186;2023-12-20T01:18:08;102269.38;;;9.21
45034;BMP280;30771;47.988;-4.186;2023-12-20T01:20:35;102239.97;;;9.36
45034;BMP280;30771;47.988;-4.186;2023-12-20T01:23:02;102227.38;;;9.39
45034;BMP280;30771;47.988;-4.186;2023-12-20T01:25:29;102187.38;;;9.36
45034;BMP280;30771;47.988;-4.186;2023-12-20T01:27:56;102175.00;;;9.46
45034;BMP280;30771;47.988;-4.186;2023-12-20T01:30:23;102153.50;;;9.50
45034;BMP280;30771;47.988;-4.186;2023-12-20T01:32:51;102135.75;;;9.52
45034;BMP280;30771;47.988;-4.186;2023-12-20T01:35:18;102133.38;;;9.59
45034;BMP280;30771;47.988;-4.186;2023-12-20T01:37:45;102114.44;;;9.55
45034;BMP280;30771;47.988;-4.186;2023-12-20T01:40:12;102122.25;;;9.65
45034;BMP280;30771;47.988;-4.186;2023-12-20T01:42:39;102112.84;;;9.62
45034;BMP280;30771;47.988;-4.186;2023-12-20T01:45:06;102116.53;;;9.69
45034;BMP280;30771;47.988;-4.186;2023-12-20T01:47:33;102087.91;;;9.66
45034;BMP280;30771;47.988;-4.186;2023-12-20T01:50:00;102093.72;;;9.78
45034;BMP280;30771;47.988;-4.186;2023-12-20T01:52:30;102092.31;;;9.83
45034;BMP280;30771;47.988;-4.186;2023-12-20T01:54:58;102091.63;;;9.81
45034;BMP280;30771;47.988;-4.186;2023-12-20T01:57:30;102085.84;;;9.78
45034;BMP280;30771;47.988;-4.186;2023-12-20T01:59:57;102091.66;;;9.89
45034;BMP280;30771;47.988;-4.186;2023-12-20T02:02:26;102074.44;;;9.95
45034;BMP280;30771;47.988;-4.186;2023-12-20T02:04:54;102081.38;;;10.04
45034;BMP280;30771;47.988;-4.186;2023-12-20T02:07:21;102080.91;;;10.00
45034;BMP280;30771;47.988;-4.186;2023-12-20T02:09:50;102070.00;;;9.95
45034;BMP280;30771;47.988;-4.186;2023-12-20T02:12:16;102088.47;;;10.03
45034;BMP280;30771;47.988;-4.186;2023-12-20T02:14:43;102080.72;;;10.02
45034;BMP280;30771;47.988;-4.186;2023-12-20T02:17:10;102110.94;;;10.15
45034;BMP280;30771;47.988;-4.186;2023-12-20T02:19:37;102115.66;;;10.12
45034;BMP280;30771;47.988;-4.186;2023-12-20T02:22:13;102115.03;;;10.10
45034;BMP280;30771;47.988;-4.186;2023-12-20T02:24:40;102114.19;;;10.09
45034;BMP280;30771;47.988;-4.186;2023-12-20T02:27:07;102114.63;;;10.05
45034;BMP280;30771;47.988;-4.186;2023-12-20T02:29:34;102102.88;;;9.91
45034;BMP280;30771;47.988;-4.186;2023-12-20T02:32:02;102115.41;;;9.97
45034;BMP280;30771;47.988;-4.186;2023-12-20T02:34:29;102109.28;;;9.89
45034;BMP280;30771;47.988;-4.186;2023-12-20T02:36:56;102097.72;;;9.82
45034;BMP280;30771;47.988;-4.186;2023-12-20T02:39:23;102113.16;;;9.85
45034;BMP280;30771;47.988;-4.186;2023-12-20T02:41:50;102105.91;;;9.79
45034;BMP280;30771;47.988;-4.186;2023-12-20T02:44:16;102108.56;;;9.79
45034;BMP280;30771;47.988;-4.186;2023-12-20T02:46:43;102101.81;;;9.84
45034;BMP280;30771;47.988;-4.186;2023-12-20T02:49:10;102087.50;;;9.79
45034;BMP280;30771;47.988;-4.186;2023-12-20T02:51:37;102094.75;;;9.85
45034;BMP280;30771;47.988;-4.186;2023-12-20T02:54:07;102087.59;;;9.95
45034;BMP280;30771;47.988;-4.186;2023-12-20T02:56:33;102094.53;;;9.96
45034;BMP280;30771;47.988;-4.186;2023-12-20T02:59:01;102091.19;;;9.94
45034;BMP280;30771;47.988;-4.186;2023-12-20T03:01:28;102090.88;;;9.89
45034;BMP280;30771;47.988;-4.186;2023-12-20T03:03:56;102107.16;;;9.92
45034;BMP280;30771;47.988;-4.186;2023-12-20T03:06:22;102129.13;;;10.01
45034;BMP280;30771;47.988;-4.186;2023-12-20T03:08:49;102134.81;;;9.96
45034;BMP280;30771;47.988;-4.186;2023-12-20T03:11:16;102164.50;;;10.06
45034;BMP280;30771;47.988;-4.186;2023-12-20T03:13:43;102177.88;;;10.13
45034;BMP280;30771;47.988;-4.186;2023-12-20T03:16:10;102183.53;;;10.18
45034;BMP280;30771;47.988;-4.186;2023-12-20T03:18:37;102175.25;;;10.13
45034;BMP280;30771;47.988;-4.186;2023-12-20T03:21:05;102178.69;;;10.13
45034;BMP280;30771;47.988;-4.186;2023-12-20T03:23:32;102189.22;;;10.13
45034;BMP280;30771;47.988;-4.186;2023-12-20T03:26:00;102181.28;;;10.05
45034;BMP280;30771;47.988;-4.186;2023-12-20T03:28:27;102207.97;;;10.10
45034;BMP280;30771;47.988;-4.186;2023-12-20T03:30:55;102215.69;;;10.12
45034;BMP280;30771;47.988;-4.186;2023-12-20T03:33:22;102223.91;;;10.09
45034;BMP280;30771;47.988;-4.186;2023-12-20T03:35:49;102227.97;;;10.03
45034;BMP280;30771;47.988;-4.186;2023-12-20T03:38:15;102224.44;;;9.95
45034;BMP280;30771;47.988;-4.186;2023-12-20T03:40:42;102232.66;;;9.92
45034;BMP280;30771;47.988;-4.186;2023-12-20T03:43:09;102225.47;;;9.84
45034;BMP280;30771;47.988;-4.186;2023-12-20T03:45:36;102234.75;;;9.88
45034;BMP280;30771;47.988;-4.186;2023-12-20T03:48:03;102241.28;;;9.84
45034;BMP280;30771;47.988;-4.186;2023-12-20T03:50:30;102251.50;;;9.87
45034;BMP280;30771;47.988;-4.186;2023-12-20T03:52:57;102239.59;;;9.75
45034;BMP280;30771;47.988;-4.186;2023-12-20T03:55:23;102248.13;;;9.77
45034;BMP280;30771;47.988;-4.186;2023-12-20T03:57:50;102252.00;;;9.83
45034;BMP280;30771;47.988;-4.186;2023-12-20T04:00:17;102246.03;;;9.81
45034;BMP280;30771;47.988;-4.186;2023-12-20T04:02:44;102249.63;;;9.80
45034;BMP280;30771;47.988;-4.186;2023-12-20T04:05:11;102256.84;;;9.78
45034;BMP280;30771;47.988;-4.186;2023-12-20T04:07:38;102239.94;;;9.63
45034;BMP280;30771;47.988;-4.186;2023-12-20T04:10:06;102242.56;;;9.63
45034;BMP280;30771;47.988;-4.186;2023-12-20T04:12:33;102252.97;;;9.64
45034;BMP280;30771;47.988;-4.186;2023-12-20T04:15:00;102245.19;;;9.63
45034;BMP280;30771;47.988;-4.186;2023-12-20T04:17:26;102244.34;;;9.62
45034;BMP280;30771;47.988;-4.186;2023-12-20T04:19:53;102230.84;;;9.57
45034;BMP280;30771;47.988;-4.186;2023-12-20T04:22:20;102241.44;;;9.65
45034;BMP280;30771;47.988;-4.186;2023-12-20T04:24:47;102224.31;;;9.61
45034;BMP280;30771;47.988;-4.186;2023-12-20T04:27:14;102235.28;;;9.57
45034;BMP280;30771;47.988;-4.186;2023-12-20T04:29:40;102232.66;;;9.57
45034;BMP280;30771;47.988;-4.186;2023-12-20T04:32:07;102232.94;;;9.54
45034;BMP280;30771;47.988;-4.186;2023-12-20T04:34:34;102250.38;;;9.55
45034;BMP280;30771;47.988;-4.186;2023-12-20T04:37:01;102266.03;;;9.56
45034;BMP280;30771;47.988;-4.186;2023-12-20T04:39:28;102269.75;;;9.54
45034;BMP280;30771;47.988;-4.186;2023-12-20T04:41:55;102272.66;;;9.51
45034;BMP280;30771;47.988;-4.186;2023-12-20T04:44:22;102275.16;;;9.52
45034;BMP280;30771;47.988;-4.186;2023-12-20T04:46:49;102295.84;;;9.65
45034;BMP280;30771;47.988;-4.186;2023-12-20T04:49:15;102290.19;;;9.60
45034;BMP280;30771;47.988;-4.186;2023-12-20T04:51:42;102295.44;;;9.60
45034;BMP280;30771;47.988;-4.186;2023-12-20T04:54:09;102311.38;;;9.58
45034;BMP280;30771;47.988;-4.186;2023-12-20T04:56:37;102324.00;;;9.55
45034;BMP280;30771;47.988;-4.186;2023-12-20T04:59:03;102340.88;;;9.62
45034;BMP280;30771;47.988;-4.186;2023-12-20T05:01:30;102334.53;;;9.55
45034;BMP280;30771;47.988;-4.186;2023-12-20T05:03:57;102337.03;;;9.56
45034;BMP280;30771;47.988;-4.186;2023-12-20T05:06:24;102352.78;;;9.66
45034;BMP280;30771;47.988;-4.186;2023-12-20T05:08:51;102361.63;;;9.65
45034;BMP280;30771;47.988;-4.186;2023-12-20T05:11:18;102336.31;;;9.64
45034;BMP280;30771;47.988;-4.186;2023-12-20T05:13:44;102324.72;;;9.57
45034;BMP280;30771;47.988;-4.186;2023-12-20T05:16:16;102334.50;;;9.64
45034;BMP280;30771;47.988;-4.186;2023-12-20T05:18:46;102319.72;;;9.54
45034;BMP280;30771;47.988;-4.186;2023-12-20T05:21:13;102325.78;;;9.64
45034;BMP280;30771;47.988;-4.186;2023-12-20T05:23:40;102313.88;;;9.60
45034;BMP280;30771;47.988;-4.186;2023-12-20T05:26:07;102320.25;;;9.67
45034;BMP280;30771;47.988;-4.186;2023-12-20T05:28:34;102295.84;;;9.65
45034;BMP280;30771;47.988;-4.186;2023-12-20T05:31:00;102293.75;;;9.68
45034;BMP280;30771;47.988;-4.186;2023-12-20T05:33:27;102270.81;;;9.61
45034;BMP280;30771;47.988;-4.186;2023-12-20T05:35:54;102278.16;;;9.67
45034;BMP280;30771;47.988;-4.186;2023-12-20T05:38:21;102269.03;;;9.61
45034;BMP280;30771;47.988;-4.186;2023-12-20T05:40:48;102265.00;;;9.67
45034;BMP280;30771;47.988;-4.186;2023-12-20T05:43:14;102256.34;;;9.57
45034;BMP280;30771;47.988;-4.186;2023-12-20T05:45:41;102270.97;;;9.59
45034;BMP280;30771;47.988;-4.186;2023-12-20T05:48:09;102260.28;;;9.61
45034;BMP280;30771;47.988;-4.186;2023-12-20T05:50:35;102263.09;;;9.59
45034;BMP280;30771;47.988;-4.186;2023-12-20T05:53:03;102261.97;;;9.62
45034;BMP280;30771;47.988;-4.186;2023-12-20T05:55:30;102255.34;;;9.58
45034;BMP280;30771;47.988;-4.186;2023-12-20T05:57:57;102228.16;;;9.49
45034;BMP280;30771;47.988;-4.186;2023-12-20T06:00:23;102245.25;;;9.53
45034;BMP280;30771;47.988;-4.186;2023-12-20T06:02:51;102243.84;;;9.59
45034;BMP280;30771;47.988;-4.186;2023-12-20T06:05:18;102222.53;;;9.52
45034;BMP280;30771;47.988;-4.186;2023-12-20T06:07:45;102233.31;;;9.59
45034;BMP280;30771;47.988;-4.186;2023-12-20T06:10:15;102221.88;;;9.50
45034;BMP280;30771;47.988;-4.186;2023-12-20T06:12:42;102238.81;;;9.65
45034;BMP280;30771;47.988;-4.186;2023-12-20T06:15:09;102236.72;;;9.69
45034;BMP280;30771;47.988;-4.186;2023-12-20T06:17:35;102199.34;;;9.65
45034;BMP280;30771;47.988;-4.186;2023-12-20T06:20:26;102174.53;;;9.68
45034;BMP280;30771;47.988;-4.186;2023-12-20T06:22:53;102193.69;;;9.78
45034;BMP280;30771;47.988;-4.186;2023-12-20T06:25:20;102199.13;;;9.76
45034;BMP280;30771;47.988;-4.186;2023-12-20T06:27:47;102180.88;;;9.75
45034;BMP280;30771;47.988;-4.186;2023-12-20T06:30:15;102171.47;;;9.72
45034;BMP280;30771;47.988;-4.186;2023-12-20T06:32:42;102160.41;;;9.69
45034;BMP280;30771;47.988;-4.186;2023-12-20T06:35:09;102168.34;;;9.77
45034;BMP280;30771;47.988;-4.186;2023-12-20T06:37:36;102165.25;;;9.73
45034;BMP280;30771;47.988;-4.186;2023-12-20T06:40:03;102163.63;;;9.80
45034;BMP280;30771;47.988;-4.186;2023-12-20T06:42:30;102126.06;;;9.70
45034;BMP280;30771;47.988;-4.186;2023-12-20T06:45:00;102133.78;;;9.72
45034;BMP280;30771;47.988;-4.186;2023-12-20T06:47:27;102136.28;;;9.73
45034;BMP280;30771;47.988;-4.186;2023-12-20T06:49:54;102115.53;;;9.70
45034;BMP280;30771;47.988;-4.186;2023-12-20T06:52:21;102131.53;;;9.77
45034;BMP280;30771;47.988;-4.186;2023-12-20T06:54:48;102108.41;;;9.63
45034;BMP280;30771;47.988;-4.186;2023-12-20T06:57:15;102129.53;;;9.71
45034;BMP280;30771;47.988;-4.186;2023-12-20T06:59:42;102125.91;;;9.72
45034;BMP280;30771;47.988;-4.186;2023-12-20T07:02:09;102121.34;;;9.74
45034;BMP280;30771;47.988;-4.186;2023-12-20T07:04:41;102120.19;;;9.76
45034;BMP280;30771;47.988;-4.186;2023-12-20T07:07:08;102104.41;;;9.76
45034;BMP280;30771;47.988;-4.186;2023-12-20T07:09:35;102067.34;;;9.70
45034;BMP280;30771;47.988;-4.186;2023-12-20T07:12:02;102070.38;;;9.75
45034;BMP280;30771;47.988;-4.186;2023-12-20T07:14:29;102083.59;;;9.83
45034;BMP280;30771;47.988;-4.186;2023-12-20T07:16:55;102074.66;;;9.76
45034;BMP280;30771;47.988;-4.186;2023-12-20T07:19:22;102075.97;;;9.80
45034;BMP280;30771;47.988;-4.186;2023-12-20T07:21:49;102078.09;;;9.76
45034;BMP280;30771;47.988;-4.186;2023-12-20T07:24:16;102081.47;;;9.86
45034;BMP280;30771;47.988;-4.186;2023-12-20T07:26:43;102076.81;;;9.80
45034;BMP280;30771;47.988;-4.186;2023-12-20T07:29:09;102072.38;;;9.81
45034;BMP280;30771;47.988;-4.186;2023-12-20T07:31:36;102075.03;;;9.81
45034;BMP280;30771;47.988;-4.186;2023-12-20T07:34:03;102074.34;;;9.79
45034;BMP280;30771;47.988;-4.186;2023-12-20T07:36:30;102081.91;;;9.82
45034;BMP280;30771;47.988;-4.186;2023-12-20T07:38:57;102064.16;;;9.76
45034;BMP280;30771;47.988;-4.186;2023-12-20T07:41:24;102062.94;;;9.70
45034;BMP280;30771;47.988;-4.186;2023-12-20T07:43:51;102069.03;;;9.71
45034;BMP280;30771;47.988;-4.186;2023-12-20T07:46:17;102075.31;;;9.78
45034;BMP280;30771;47.988;-4.186;2023-12-20T07:48:49;102079.09;;;9.75
45034;BMP280;30771;47.988;-4.186;2023-12-20T07:51:16;102092.25;;;9.75
45034;BMP280;30771;47.988;-4.186;2023-12-20T07:53:42;102077.69;;;9.63
45034;BMP280;30771;47.988;-4.186;2023-12-20T07:56:19;102079.47;;;9.63
45034;BMP280;30771;47.988;-4.186;2023-12-20T07:58:46;102106.97;;;9.68
45034;BMP280;30771;47.988;-4.186;2023-12-20T08:01:19;102087.66;;;9.60
45034;BMP280;30771;47.988;-4.186;2023-12-20T08:03:48;102082.25;;;9.61
45034;BMP280;30771;47.988;-4.186;2023-12-20T08:06:15;102085.56;;;9.63
45034;BMP280;30771;47.988;-4.186;2023-12-20T08:08:44;102077.41;;;9.66
45034;BMP280;30771;47.988;-4.186;2023-12-20T08:11:20;102062.72;;;9.64
45034;BMP280;30771;47.988;-4.186;2023-12-20T08:13:47;102072.16;;;9.74
45034;BMP280;30771;47.988;-4.186;2023-12-20T08:16:14;102054.25;;;9.78
45034;BMP280;30771;47.988;-4.186;2023-12-20T08:18:42;102051.47;;;9.79
45034;BMP280;30771;47.988;-4.186;2023-12-20T08:21:09;102036.38;;;9.81
45034;BMP280;30771;47.988;-4.186;2023-12-20T08:23:36;102033.09;;;9.87
45034;BMP280;30771;47.988;-4.186;2023-12-20T08:26:09;102036.31;;;9.99
45034;BMP280;30771;47.988;-4.186;2023-12-20T08:28:36;102023.84;;;10.01
45034;BMP280;30771;47.988;-4.186;2023-12-20T08:31:03;102025.88;;;10.15
45034;BMP280;30771;47.988;-4.186;2023-12-20T08:33:30;102013.88;;;10.21
45034;BMP280;30771;47.988;-4.186;2023-12-20T08:35:58;102004.97;;;10.22
45034;BMP280;30771;47.988;-4.186;2023-12-20T08:38:24;101999.91;;;10.28
45034;BMP280;30771;47.988;-4.186;2023-12-20T08:40:51;102002.75;;;10.35
45034;BMP280;30771;47.988;-4.186;2023-12-20T08:43:18;101997.66;;;10.41
45034;BMP280;30771;47.988;-4.186;2023-12-20T08:45:45;101989.63;;;10.43
45034;BMP280;30771;47.988;-4.186;2023-12-20T08:48:11;101991.53;;;10.41
45034;BMP280;30771;47.988;-4.186;2023-12-20T08:50:38;101981.84;;;10.41
45034;BMP280;30771;47.988;-4.186;2023-12-20T08:53:06;101985.47;;;10.48
45034;BMP280;30771;47.988;-4.186;2023-12-20T08:55:32;101986.63;;;10.46
45034;BMP280;30771;47.988;-4.186;2023-12-20T08:57:59;101993.72;;;10.53
45034;BMP280;30771;47.988;-4.186;2023-12-20T09:00:26;101989.94;;;10.56
45034;BMP280;30771;47.988;-4.186;2023-12-20T09:02:54;101984.88;;;10.62
45034;BMP280;30771;47.988;-4.186;2023-12-20T09:05:21;101965.94;;;10.59
45034;BMP280;30771;47.988;-4.186;2023-12-20T09:07:49;101977.94;;;10.69
45034;BMP280;30771;47.988;-4.186;2023-12-20T09:10:16;101973.16;;;10.73
45034;BMP280;30771;47.988;-4.186;2023-12-20T09:12:50;101961.50;;;10.75
45034;BMP280;30771;47.988;-4.186;2023-12-20T09:15:17;101989.50;;;10.84
45034;BMP280;30771;47.988;-4.186;2023-12-20T09:17:44;101982.25;;;10.86
45034;BMP280;30771;47.988;-4.186;2023-12-20T09:20:11;101980.44;;;10.87
45034;BMP280;30771;47.988;-4.186;2023-12-20T09:22:40;101976.66;;;10.89
45034;BMP280;30771;47.988;-4.186;2023-12-20T09:25:09;101958.53;;;10.78
45034;BMP280;30771;47.988;-4.186;2023-12-20T09:27:37;101973.03;;;10.90
45034;BMP280;30771;47.988;-4.186;2023-12-20T09:30:04;101975.69;;;10.98
45034;BMP280;30771;47.988;-4.186;2023-12-20T09:32:32;101971.88;;;11.01
45034;BMP280;30771;47.988;-4.186;2023-12-20T09:34:58;101989.16;;;11.11
45034;BMP280;30771;47.988;-4.186;2023-12-20T09:37:26;101974.50;;;11.17
45034;BMP280;30771;47.988;-4.186;2023-12-20T09:39:54;101986.00;;;11.24
45034;BMP280;30771;47.988;-4.186;2023-12-20T09:42:25;101967.56;;;11.24
45034;BMP280;30771;47.988;-4.186;2023-12-20T09:44:57;101968.06;;;11.28
45034;BMP280;30771;47.988;-4.186;2023-12-20T09:47:27;101966.25;;;11.28
45034;BMP280;30771;47.988;-4.186;2023-12-20T09:49:54;101979.75;;;11.33
45034;BMP280;30771;47.988;-4.186;2023-12-20T09:52:22;101972.00;;;11.32
45034;BMP280;30771;47.988;-4.186;2023-12-20T09:54:52;101992.44;;;11.46
45034;BMP280;30771;47.988;-4.186;2023-12-20T09:57:19;102006.94;;;11.50
45034;BMP280;30771;47.988;-4.186;2023-12-20T09:59:46;102006.09;;;11.49
45034;BMP280;30771;47.988;-4.186;2023-12-20T10:02:13;102010.38;;;11.58
45034;BMP280;30771;47.988;-4.186;2023-12-20T10:04:46;102011.81;;;11.61
45034;BMP280;30771;47.988;-4.186;2023-12-20T10:07:17;102018.75;;;11.70
45034;BMP280;30771;47.988;-4.186;2023-12-20T10:09:44;102033.44;;;11.72
45034;BMP280;30771;47.988;-4.186;2023-12-20T10:12:11;102033.25;;;11.74
45034;BMP280;30771;47.988;-4.186;2023-12-20T10:14:38;102031.13;;;11.77
45034;BMP280;30771;47.988;-4.186;2023-12-20T10:17:05;102045.28;;;11.84
45034;BMP280;30771;47.988;-4.186;2023-12-20T10:19:33;102041.28;;;11.88
45034;BMP280;30771;47.988;-4.186;2023-12-20T10:22:00;102042.47;;;11.86
45034;BMP280;30771;47.988;-4.186;2023-12-20T10:24:30;102039.28;;;11.98
45034;BMP280;30771;47.988;-4.186;2023-12-20T10:27:03;102037.13;;;12.02
45034;BMP280;30771;47.988;-4.186;2023-12-20T10:29:34;102054.59;;;12.03
45034;BMP280;30771;47.988;-4.186;2023-12-20T10:32:25;102041.75;;;12.00
45034;BMP280;30771;47.988;-4.186;2023-12-20T10:34:53;102038.31;;;11.91
45034;BMP280;30771;47.988;-4.186;2023-12-20T10:37:20;102032.22;;;11.91
45034;BMP280;30771;47.988;-4.186;2023-12-20T10:39:52;102025.75;;;12.01
45034;BMP280;30771;47.988;-4.186;2023-12-20T10:42:26;102001.78;;;12.03
45034;BMP280;30771;47.988;-4.186;2023-12-20T10:44:53;102003.91;;;12.15
45034;BMP280;30771;47.988;-4.186;2023-12-20T10:47:20;102016.56;;;12.20
45034;BMP280;30771;47.988;-4.186;2023-12-20T10:49:47;101991.31;;;12.17
45034;BMP280;30771;47.988;-4.186;2023-12-20T10:52:16;101980.75;;;12.17
45034;BMP280;30771;47.988;-4.186;2023-12-20T10:54:44;101991.00;;;12.21
45034;BMP280;30771;47.988;-4.186;2023-12-20T10:57:12;101977.66;;;12.14
45034;BMP280;30771;47.988;-4.186;2023-12-20T10:59:39;101977.66;;;12.14
45034;BMP280;30771;47.988;-4.186;2023-12-20T11:02:06;101980.94;;;12.16
45034;BMP280;30771;47.988;-4.186;2023-12-20T11:07:43;101920.19;;;12.16
45034;BMP280;30771;47.988;-4.186;2023-12-20T11:10:59;101893.03;;;12.07
45034;BMP280;30771;47.988;-4.186;2023-12-20T11:13:28;101877.34;;;12.06
45034;BMP280;30771;47.988;-4.186;2023-12-20T11:15:59;101869.03;;;11.94
45034;BMP280;30771;47.988;-4.186;2023-12-20T11:18:29;101871.34;;;11.89
45034;BMP280;30771;47.988;-4.186;2023-12-20T11:21:04;101865.78;;;11.84
45034;BMP280;30771;47.988;-4.186;2023-12-20T11:23:32;101853.13;;;11.80
45034;BMP280;30771;47.988;-4.186;2023-12-20T11:26:02;101841.38;;;11.82
45034;BMP280;30771;47.988;-4.186;2023-12-20T11:28:29;101828.69;;;11.78
45034;BMP280;30771;47.988;-4.186;2023-12-20T11:30:58;101832.81;;;11.80
45034;BMP280;30771;47.988;-4.186;2023-12-20T11:33:31;101838.97;;;11.95
45034;BMP280;30771;47.988;-4.186;2023-12-20T11:35:59;101805.78;;;12.01
45034;BMP280;30771;47.988;-4.186;2023-12-20T11:38:26;101803.38;;;12.14
45034;BMP280;30771;47.988;-4.186;2023-12-20T11:40:54;101776.56;;;12.17
45034;BMP280;30771;47.988;-4.186;2023-12-20T11:43:35;101798.41;;;12.34
45034;BMP280;30771;47.988;-4.186;2023-12-20T11:46:06;101789.00;;;12.31
45034;BMP280;30771;47.988;-4.186;2023-12-20T11:48:40;101780.81;;;12.26
45034;BMP280;30771;47.988;-4.186;2023-12-20T11:51:10;101814.78;;;12.29
45034;BMP280;30771;47.988;-4.186;2023-12-20T11:53:38;101789.00;;;12.31
45034;BMP280;30771;47.988;-4.186;2023-12-20T11:56:08;101803.16;;;12.38
45034;BMP280;30771;47.988;-4.186;2023-12-20T11:58:35;101795.09;;;12.32
45034;BMP280;30771;47.988;-4.186;2023-12-20T12:01:02;101809.31;;;12.31
45034;BMP280;30771;47.988;-4.186;2023-12-20T12:03:31;101823.25;;;12.39
45034;BMP280;30771;47.988;-4.186;2023-12-20T12:05:57;101833.91;;;12.31
45034;BMP280;30771;47.988;-4.186;2023-12-20T12:08:25;101818.72;;;12.33
45034;BMP280;30771;47.988;-4.186;2023-12-20T12:10:51;101820.81;;;12.38
45034;BMP280;30771;47.988;-4.186;2023-12-20T12:13:20;101810.72;;;12.41
45034;BMP280;30771;47.988;-4.186;2023-12-20T12:15:48;101821.81;;;12.51
45034;BMP280;30771;47.988;-4.186;2023-12-20T12:18:18;101809.66;;;12.50
45034;BMP280;30771;47.988;-4.186;2023-12-20T12:20:45;101816.13;;;12.48
45034;BMP280;30771;47.988;-4.186;2023-12-20T12:23:12;101818.84;;;12.54
45034;BMP280;30771;47.988;-4.186;2023-12-20T12:25:39;101843.91;;;12.58
45034;BMP280;30771;47.988;-4.186;2023-12-20T12:28:09;101846.47;;;12.66
45034;BMP280;30771;47.988;-4.186;2023-12-20T12:30:37;101845.38;;;12.61
45034;BMP280;30771;47.988;-4.186;2023-12-20T12:33:11;101857.31;;;12.71
45034;BMP280;30771;47.988;-4.186;2023-12-20T12:35:40;101855.22;;;12.67
45034;BMP280;30771;47.988;-4.186;2023-12-20T12:38:07;101841.72;;;12.62
45034;BMP280;30771;47.988;-4.186;2023-12-20T12:40:35;101855.50;;;12.72
45034;BMP280;30771;47.988;-4.186;2023-12-20T12:43:03;101861.69;;;12.64
45034;BMP280;30771;47.988;-4.186;2023-12-20T12:45:31;101860.41;;;12.60
45034;BMP280;30771;47.988;-4.186;2023-12-20T12:47:57;101869.28;;;12.67
45034;BMP280;30771;47.988;-4.186;2023-12-20T12:50:24;101852.50;;;12.60
45034;BMP280;30771;47.988;-4.186;2023-12-20T12:52:51;101838.72;;;12.50
45034;BMP280;30771;47.988;-4.186;2023-12-20T12:55:18;101838.63;;;12.58
45034;BMP280;30771;47.988;-4.186;2023-12-20T12:57:45;101816.53;;;12.51
45034;BMP280;30771;47.988;-4.186;2023-12-20T13:00:12;101818.56;;;12.49
45034;BMP280;30771;47.988;-4.186;2023-12-20T13:02:40;101822.13;;;12.56
45034;BMP280;30771;47.988;-4.186;2023-12-20T13:05:09;101784.97;;;12.43
45034;BMP280;30771;47.988;-4.186;2023-12-20T13:07:37;101815.38;;;12.54
45034;BMP280;30771;47.988;-4.186;2023-12-20T13:10:04;101792.34;;;12.48
45034;BMP280;30771;47.988;-4.186;2023-12-20T13:12:32;101760.69;;;12.40
45034;BMP280;30771;47.988;-4.186;2023-12-20T13:14:59;101774.09;;;12.38
45034;BMP280;30771;47.988;-4.186;2023-12-20T13:17:26;101768.28;;;12.43
45034;BMP280;30771;47.988;-4.186;2023-12-20T13:19:55;101752.97;;;12.53
45034;BMP280;30771;47.988;-4.186;2023-12-20T13:22:23;101741.66;;;12.59
45034;BMP280;30771;47.988;-4.186;2023-12-20T13:24:50;101728.63;;;12.57
45034;BMP280;30771;47.988;-4.186;2023-12-20T13:27:17;101728.34;;;12.52
45034;BMP280;30771;47.988;-4.186;2023-12-20T13:29:44;101709.41;;;12.49
45034;BMP280;30771;47.988;-4.186;2023-12-20T13:32:11;101684.41;;;12.37
45034;BMP280;30771;47.988;-4.186;2023-12-20T13:34:38;101664.34;;;12.36
45034;BMP280;30771;47.988;-4.186;2023-12-20T13:37:05;101663.06;;;12.46
45034;BMP280;30771;47.988;-4.186;2023-12-20T13:39:32;101676.50;;;12.51
45034;BMP280;30771;47.988;-4.186;2023-12-20T13:41:58;101647.84;;;12.48
45034;BMP280;30771;47.988;-4.186;2023-12-20T13:44:27;101624.22;;;12.47
45034;BMP280;30771;47.988;-4.186;2023-12-20T13:46:54;101628.13;;;12.51
45034;BMP280;30771;47.988;-4.186;2023-12-20T13:49:20;101624.22;;;12.47
45034;BMP280;30771;47.988;-4.186;2023-12-20T13:51:48;101611.38;;;12.44
45034;BMP280;30771;47.988;-4.186;2023-12-20T13:54:14;101598.38;;;12.42
45034;BMP280;30771;47.988;-4.186;2023-12-20T13:56:43;101585.09;;;12.36
45034;BMP280;30771;47.988;-4.186;2023-12-20T13:59:28;101566.88;;;12.26